上海/浦東 の空港の天気 - METARとTAF

上海浦東国際空港 ( ZSPD / PVG ) - 中華人民共和国 上海市
飛行場実況気象(Metar)
観測時間01/20 09:30 CST (01/20 01:30 UTC)
風向・風速北北西 10m/s 瞬間風速16m/s
視程5000m
天気現象煙霧
なし
気温3℃
湿度48%
気圧1034hPa
METARZSPD 200130Z 34010G16MPS 5000 HZ NSC 03/M07 Q1034 NOSIG
過去の天気等 Google飛行場航空写真 Wunderground天気予報

過去48時間のMETAR

飛行場予報(TAF)
発表時間: 1/20 05:12 CST (1/19 21:12 UTC)
予報対象時間: 20日8時 CST ~ 21日8時 CST
風向・風速北北西 9m/s 瞬間風速 14m/s
視程6,000m
全天の4割程度の雲 雲底高度 610m
TAF ZSPD 192112Z 2000/2024 33009G14MPS 6000 SCT020 TX04/2005Z TNM00/22Z